Time;durP1;ratioP1;P1;durP2;ratioP2;P2;SDS_P1;SDS_P2;PMS_P1;PMS_P2;Temp;Humidity;BMP_temperature;BMP_pressure;BME280_temperature;BME280_humidity;BME280_pressure;Samples;Min_cycle;Max_cycle;Signal;HPM_P1;HPM_P2
2022/11/14 00:01:26;;;;;;;15.95;11.23;;;;;;;;;;5023138;28;90206;-62
2022/11/14 00:03:53;;;;;;;17.70;11.75;;;;;;;;;;5027185;27;89977;-62
2022/11/14 00:06:19;;;;;;;19.25;12.48;;;;;;;;;;5030261;27;89818;-63
2022/11/14 00:08:45;;;;;;;18.10;12.70;;;;;;;;;;5018169;28;90882;-63
2022/11/14 00:11:11;;;;;;;21.10;14.10;;;;;;;;;;5016112;27;89990;-62
2022/11/14 00:13:38;;;;;;;19.15;12.85;;;;;;;;;;5017941;27;89019;-62
2022/11/14 00:16:04;;;;;;;20.20;14.00;;;;;;;;;;5014014;28;88928;-62
2022/11/14 00:18:30;;;;;;;19.58;13.48;;;;;;;;;;5014109;28;89599;-62
2022/11/14 00:20:57;;;;;;;21.30;14.60;;;;;;;;;;5017649;28;89894;-61
2022/11/14 00:23:23;;;;;;;21.90;15.07;;;;;;;;;;5014066;28;90912;-63
2022/11/14 00:25:49;;;;;;;24.00;15.55;;;;;;;;;;5013535;28;90550;-62
2022/11/14 00:28:16;;;;;;;23.80;15.35;;;;;;;;;;5019466;28;89345;-62
2022/11/14 00:30:46;;;;;;;31.95;15.43;;;;;;;;;;5016425;28;89549;-62
2022/11/14 00:33:12;;;;;;;31.15;16.70;;;;;;;;;;5023078;28;89149;-62
2022/11/14 00:35:52;;;;;;;24.90;15.68;;;;;;;;;;5030930;27;90095;-63
2022/11/14 00:38:18;;;;;;;32.88;17.08;;;;;;;;;;5013079;28;89713;-63
2022/11/14 00:40:44;;;;;;;26.85;16.48;;;;;;;;;;5005559;28;89627;-62
2022/11/14 00:43:10;;;;;;;31.55;17.02;;;;;;;;;;5018446;28;91033;-62
2022/11/14 00:45:37;;;;;;;31.75;17.58;;;;;;;;;;5017736;28;91061;-62
2022/11/14 00:48:03;;;;;;;31.38;17.05;;;;;;;;;;5015985;28;89552;-61
2022/11/14 00:50:29;;;;;;;31.08;18.08;;;;;;;;;;5025127;28;89300;-63
2022/11/14 00:52:55;;;;;;;28.88;17.20;;;;;;;;;;5014151;28;89378;-63
2022/11/14 00:55:22;;;;;;;29.38;18.40;;;;;;;;;;5011950;28;90319;-63
2022/11/14 00:57:48;;;;;;;30.75;18.90;;;;;;;;;;5022129;28;89555;-61
2022/11/14 01:00:14;;;;;;;28.92;18.50;;;;;;;;;;5016600;28;89023;-62
2022/11/14 01:02:41;;;;;;;30.10;18.80;;;;;;;;;;5018590;28;89959;-63
2022/11/14 01:05:07;;;;;;;34.20;19.23;;;;;;;;;;5020339;28;90924;-63
2022/11/14 01:07:33;;;;;;;32.40;19.08;;;;;;;;;;5014084;28;90954;-62
2022/11/14 01:09:59;;;;;;;34.78;20.10;;;;;;;;;;5015930;28;90210;-62
2022/11/14 01:12:26;;;;;;;31.75;20.20;;;;;;;;;;5016995;28;89161;-61
2022/11/14 01:14:52;;;;;;;36.85;21.05;;;;;;;;;;5022221;28;90251;-61
2022/11/14 01:17:18;;;;;;;33.92;20.08;;;;;;;;;;5007800;27;89519;-62
2022/11/14 01:19:44;;;;;;;36.85;20.15;;;;;;;;;;5015905;28;90308;-62
2022/11/14 01:22:10;;;;;;;33.83;20.73;;;;;;;;;;5025528;28;90475;-62
2022/11/14 01:24:37;;;;;;;34.35;20.88;;;;;;;;;;5026225;28;90621;-61
2022/11/14 01:27:03;;;;;;;33.13;21.05;;;;;;;;;;5027036;27;90055;-62
2022/11/14 01:29:29;;;;;;;32.67;20.15;;;;;;;;;;5017823;28;89004;-61
2022/11/14 01:31:55;;;;;;;35.40;20.50;;;;;;;;;;5020915;28;89570;-62
2022/11/14 01:34:22;;;;;;;34.50;20.63;;;;;;;;;;5021124;27;90081;-61
2022/11/14 01:36:48;;;;;;;34.42;22.15;;;;;;;;;;5015720;28;89451;-62
2022/11/14 01:39:15;;;;;;;38.03;21.40;;;;;;;;;;5022892;28;90862;-62
2022/11/14 01:41:41;;;;;;;40.60;22.65;;;;;;;;;;5019663;27;90317;-63
2022/11/14 01:44:14;;;;;;;38.08;22.48;;;;;;;;;;5027432;27;89429;-61
2022/11/14 01:46:41;;;;;;;37.25;22.13;;;;;;;;;;5016357;28;90022;-62
2022/11/14 01:49:12;;;;;;;37.60;22.73;;;;;;;;;;5030179;27;89696;-61
2022/11/14 01:51:44;;;;;;;38.28;22.58;;;;;;;;;;5023861;27;92125;-62
2022/11/14 01:54:13;;;;;;;40.00;22.92;;;;;;;;;;5026820;28;89062;-61
2022/11/14 01:56:43;;;;;;;38.28;22.63;;;;;;;;;;5024570;27;89508;-62
2022/11/14 01:59:13;;;;;;;36.72;22.58;;;;;;;;;;5030276;28;90056;-63
2022/11/14 02:01:46;;;;;;;44.38;24.08;;;;;;;;;;5017043;28;90619;-62
2022/11/14 02:04:16;;;;;;;41.80;24.67;;;;;;;;;;5013585;28;89644;-62
2022/11/14 02:06:43;;;;;;;41.53;23.27;;;;;;;;;;5021385;28;89228;-62
2022/11/14 02:09:09;;;;;;;38.45;23.00;;;;;;;;;;5031248;27;89993;-62
2022/11/14 02:11:38;;;;;;;40.00;23.90;;;;;;;;;;5013857;28;92462;-62
2022/11/14 02:14:05;;;;;;;41.90;23.55;;;;;;;;;;5015505;28;90159;-61
2022/11/14 02:16:32;;;;;;;43.38;23.83;;;;;;;;;;5019685;28;91285;-62
2022/11/14 02:18:58;;;;;;;39.05;21.92;;;;;;;;;;5020525;28;90014;-62
2022/11/14 02:21:24;;;;;;;42.47;23.15;;;;;;;;;;5018610;27;90325;-61
2022/11/14 02:23:50;;;;;;;40.40;22.42;;;;;;;;;;5017363;28;89704;-61
2022/11/14 02:26:18;;;;;;;36.90;22.25;;;;;;;;;;5019858;28;90814;-61
2022/11/14 02:28:44;;;;;;;43.80;23.67;;;;;;;;;;5017606;28;90859;-61
2022/11/14 02:31:11;;;;;;;45.63;23.88;;;;;;;;;;5018490;28;89573;-62
2022/11/14 02:33:37;;;;;;;39.25;23.58;;;;;;;;;;5031955;28;89027;-62
2022/11/14 02:36:03;;;;;;;40.20;23.20;;;;;;;;;;5008967;28;91122;-62
2022/11/14 02:38:30;;;;;;;39.03;23.02;;;;;;;;;;5017268;28;89649;-62
2022/11/14 02:40:58;;;;;;;40.33;23.27;;;;;;;;;;5021083;27;90006;-61
2022/11/14 02:43:24;;;;;;;38.13;22.23;;;;;;;;;;5014953;28;90176;-61
2022/11/14 02:45:51;;;;;;;40.88;24.48;;;;;;;;;;5019942;28;89016;-61
2022/11/14 02:48:17;;;;;;;48.28;23.67;;;;;;;;;;5020441;28;90267;-62
2022/11/14 02:50:43;;;;;;;42.45;24.45;;;;;;;;;;5027864;27;90229;-61
2022/11/14 02:53:09;;;;;;;44.28;23.73;;;;;;;;;;5015650;28;89297;-61
2022/11/14 02:55:36;;;;;;;37.42;23.55;;;;;;;;;;5024929;28;89985;-61
2022/11/14 02:58:02;;;;;;;40.97;24.15;;;;;;;;;;5024345;27;89829;-62
2022/11/14 03:00:28;;;;;;;42.38;24.70;;;;;;;;;;5015999;28;89984;-62
2022/11/14 03:02:54;;;;;;;45.65;25.60;;;;;;;;;;5020120;28;89371;-61
2022/11/14 03:05:21;;;;;;;45.53;23.98;;;;;;;;;;5029234;27;91119;-62
2022/11/14 03:07:47;;;;;;;44.80;24.05;;;;;;;;;;5017761;28;90944;-61
2022/11/14 03:10:13;;;;;;;50.55;25.35;;;;;;;;;;5014690;28;90025;-61
2022/11/14 03:12:40;;;;;;;48.25;25.95;;;;;;;;;;5014715;28;90999;-62
2022/11/14 03:15:06;;;;;;;48.45;25.38;;;;;;;;;;5032220;28;90031;-62
2022/11/14 03:17:33;;;;;;;45.75;24.70;;;;;;;;;;5011607;28;90449;-61
2022/11/14 03:19:59;;;;;;;47.83;24.73;;;;;;;;;;5017643;28;91602;-62
2022/11/14 03:22:26;;;;;;;45.75;25.92;;;;;;;;;;5021013;28;89496;-62
2022/11/14 03:24:52;;;;;;;46.13;25.17;;;;;;;;;;5027104;28;89079;-62
2022/11/14 03:27:19;;;;;;;43.40;24.50;;;;;;;;;;5021977;27;89995;-61
2022/11/14 03:29:49;;;;;;;43.92;24.17;;;;;;;;;;5019311;28;91675;-61
2022/11/14 03:32:15;;;;;;;44.55;24.77;;;;;;;;;;5016669;28;89023;-61
2022/11/14 03:34:41;;;;;;;49.03;25.88;;;;;;;;;;5014517;28;91409;-62
2022/11/14 03:37:08;;;;;;;50.88;25.75;;;;;;;;;;5020631;28;89901;-61
2022/11/14 03:39:34;;;;;;;47.38;26.52;;;;;;;;;;5036031;27;90298;-61
2022/11/14 03:42:00;;;;;;;44.38;25.83;;;;;;;;;;5025096;27;90094;-62
2022/11/14 03:44:26;;;;;;;44.88;25.38;;;;;;;;;;5015984;28;89114;-62
2022/11/14 03:46:53;;;;;;;46.83;25.73;;;;;;;;;;5027353;28;90023;-62
2022/11/14 03:49:19;;;;;;;44.92;25.60;;;;;;;;;;5017536;27;91224;-62
2022/11/14 03:51:45;;;;;;;48.28;25.95;;;;;;;;;;5015003;28;90040;-62
2022/11/14 03:54:11;;;;;;;43.42;24.75;;;;;;;;;;5018602;28;91028;-61
2022/11/14 03:56:38;;;;;;;52.63;27.58;;;;;;;;;;5016767;28;90594;-61
2022/11/14 03:59:04;;;;;;;46.22;25.48;;;;;;;;;;5019234;28;89310;-62
2022/11/14 04:01:30;;;;;;;45.25;25.20;;;;;;;;;;5015435;27;90027;-61
2022/11/14 04:03:56;;;;;;;47.22;25.52;;;;;;;;;;5027842;28;90591;-62
2022/11/14 04:06:23;;;;;;;49.67;25.52;;;;;;;;;;5024656;28;91082;-62
2022/11/14 04:08:50;;;;;;;48.15;26.13;;;;;;;;;;5014189;27;89854;-62
2022/11/14 04:11:17;;;;;;;50.60;26.60;;;;;;;;;;5013021;28;89046;-62
2022/11/14 04:13:43;;;;;;;50.72;26.00;;;;;;;;;;5007581;28;90022;-62
2022/11/14 04:16:09;;;;;;;46.25;24.65;;;;;;;;;;5016694;28;89573;-63
2022/11/14 04:18:36;;;;;;;49.22;25.33;;;;;;;;;;5029537;28;89741;-62
2022/11/14 04:21:02;;;;;;;46.95;24.60;;;;;;;;;;5029984;27;90397;-62
2022/11/14 04:23:28;;;;;;;49.80;24.73;;;;;;;;;;5035302;27;89574;-63
2022/11/14 04:25:56;;;;;;;46.17;25.45;;;;;;;;;;5017954;28;90444;-62
2022/11/14 04:28:22;;;;;;;44.72;24.83;;;;;;;;;;5015484;28;90702;-62
2022/11/14 04:30:48;;;;;;;41.25;23.27;;;;;;;;;;5031415;28;89081;-62
2022/11/14 04:33:14;;;;;;;47.08;24.80;;;;;;;;;;5013888;27;90367;-62
2022/11/14 04:35:41;;;;;;;49.08;25.17;;;;;;;;;;5021493;28;90012;-62
2022/11/14 04:38:08;;;;;;;50.97;25.02;;;;;;;;;;5018074;27;88931;-62
2022/11/14 04:40:34;;;;;;;45.85;25.60;;;;;;;;;;5029328;28;91107;-62
2022/11/14 04:43:01;;;;;;;48.20;24.15;;;;;;;;;;5015154;28;92627;-62
2022/11/14 04:45:27;;;;;;;49.40;25.08;;;;;;;;;;5032069;28;90710;-62
2022/11/14 04:47:53;;;;;;;44.95;24.50;;;;;;;;;;5029849;28;90081;-62
2022/11/14 04:50:20;;;;;;;47.00;24.63;;;;;;;;;;5033620;27;89035;-62
2022/11/14 04:52:49;;;;;;;44.03;24.25;;;;;;;;;;5029557;28;92654;-62
2022/11/14 04:55:15;;;;;;;46.50;25.63;;;;;;;;;;5038260;27;89591;-62
2022/11/14 04:57:42;;;;;;;52.42;25.30;;;;;;;;;;5035959;27;89371;-62
2022/11/14 05:00:08;;;;;;;40.13;22.63;;;;;;;;;;5024169;27;90061;-62
2022/11/14 05:02:34;;;;;;;44.67;23.08;;;;;;;;;;5031695;27;90782;-62
2022/11/14 05:05:01;;;;;;;44.28;22.98;;;;;;;;;;5016408;28;89491;-62
2022/11/14 05:07:27;;;;;;;46.25;23.70;;;;;;;;;;5021144;28;89275;-62
2022/11/14 05:09:53;;;;;;;40.33;21.67;;;;;;;;;;5019448;28;89947;-62
2022/11/14 05:12:19;;;;;;;45.35;23.65;;;;;;;;;;5019183;28;90137;-62
2022/11/14 05:14:46;;;;;;;46.38;23.58;;;;;;;;;;5019150;28;89893;-62
2022/11/14 05:17:12;;;;;;;38.95;22.55;;;;;;;;;;5016601;28;89934;-62
2022/11/14 05:19:38;;;;;;;53.67;24.90;;;;;;;;;;5004721;28;90298;-62
2022/11/14 05:22:05;;;;;;;45.60;23.08;;;;;;;;;;5017945;28;89598;-63
2022/11/14 05:24:31;;;;;;;40.20;22.20;;;;;;;;;;5020354;28;89394;-62
2022/11/14 05:26:57;;;;;;;50.20;24.63;;;;;;;;;;5017153;28;91122;-62
2022/11/14 05:29:24;;;;;;;42.85;23.02;;;;;;;;;;5020836;28;90544;-61
2022/11/14 05:31:50;;;;;;;47.90;23.65;;;;;;;;;;5017144;27;90076;-62
2022/11/14 05:34:16;;;;;;;43.47;23.58;;;;;;;;;;5017741;28;89610;-62
2022/11/14 05:36:42;;;;;;;44.03;22.30;;;;;;;;;;5016541;28;90069;-61
2022/11/14 05:39:09;;;;;;;43.45;22.08;;;;;;;;;;5025513;28;90055;-62
2022/11/14 05:41:35;;;;;;;49.13;23.83;;;;;;;;;;5038694;27;89545;-62
2022/11/14 05:44:03;;;;;;;47.97;24.20;;;;;;;;;;5017209;28;89001;-63
2022/11/14 05:46:29;;;;;;;42.28;23.13;;;;;;;;;;5018142;28;90032;-62
2022/11/14 05:48:55;;;;;;;40.35;21.83;;;;;;;;;;5019620;27;89652;-62
2022/11/14 05:51:21;;;;;;;41.72;22.15;;;;;;;;;;5017342;28;91058;-62
2022/11/14 05:53:48;;;;;;;42.95;22.27;;;;;;;;;;5018298;28;89537;-62
2022/11/14 05:56:14;;;;;;;43.45;23.20;;;;;;;;;;5015055;28;91064;-61
2022/11/14 05:58:40;;;;;;;43.28;22.52;;;;;;;;;;5018077;28;90378;-61
2022/11/14 06:01:08;;;;;;;44.65;22.55;;;;;;;;;;5022119;27;89719;-62
2022/11/14 06:03:35;;;;;;;43.55;22.33;;;;;;;;;;5002920;28;90471;-62
2022/11/14 06:06:03;;;;;;;38.78;21.10;;;;;;;;;;5025484;27;90008;-61
2022/11/14 06:08:30;;;;;;;43.33;22.63;;;;;;;;;;5021807;27;89523;-62
2022/11/14 06:11:02;;;;;;;44.13;22.02;;;;;;;;;;5020607;27;89052;-62
2022/11/14 06:13:28;;;;;;;41.42;22.60;;;;;;;;;;5022184;28;90369;-62
2022/11/14 06:16:01;;;;;;;42.15;21.00;;;;;;;;;;5018831;28;88984;-62
2022/11/14 06:18:28;;;;;;;43.08;21.58;;;;;;;;;;5014694;27;90382;-62
2022/11/14 06:21:03;;;;;;;48.30;23.10;;;;;;;;;;5019729;28;89394;-62
2022/11/14 06:23:29;;;;;;;45.55;22.45;;;;;;;;;;5015399;28;89021;-62
2022/11/14 06:26:02;;;;;;;43.97;22.75;;;;;;;;;;5017369;28;90094;-62
2022/11/14 06:28:29;;;;;;;48.38;24.00;;;;;;;;;;5016619;27;89195;-62
2022/11/14 06:30:59;;;;;;;38.67;20.77;;;;;;;;;;5016945;28;92907;-62
2022/11/14 06:33:32;;;;;;;47.65;22.20;;;;;;;;;;5014408;28;91839;-62
2022/11/14 06:36:02;;;;;;;48.22;23.02;;;;;;;;;;5019700;28;90386;-62
2022/11/14 06:38:31;;;;;;;46.85;22.38;;;;;;;;;;5016012;28;89989;-62
2022/11/14 06:41:17;;;;;;;47.72;21.52;;;;;;;;;;5024241;28;90171;-62
2022/11/14 06:43:45;;;;;;;43.45;21.23;;;;;;;;;;5015075;28;90182;-62
2022/11/14 06:46:13;;;;;;;43.90;21.92;;;;;;;;;;5021901;28;90034;-62
2022/11/14 06:48:39;;;;;;;40.03;22.02;;;;;;;;;;5019360;28;90608;-62
2022/11/14 06:51:06;;;;;;;40.85;20.95;;;;;;;;;;5029038;27;89366;-62
2022/11/14 06:53:33;;;;;;;41.90;21.63;;;;;;;;;;5024302;27;91527;-63
2022/11/14 06:56:10;;;;;;;37.88;20.13;;;;;;;;;;5018635;28;90607;-62
2022/11/14 06:58:37;;;;;;;33.90;19.48;;;;;;;;;;5018336;28;91390;-62
2022/11/14 07:01:05;;;;;;;36.33;19.35;;;;;;;;;;5017256;28;91419;-62
2022/11/14 07:03:31;;;;;;;35.83;20.05;;;;;;;;;;5021881;28;89213;-62
2022/11/14 07:05:59;;;;;;;37.67;19.95;;;;;;;;;;5016917;28;90103;-62
2022/11/14 07:08:25;;;;;;;34.97;19.30;;;;;;;;;;5013994;28;90454;-62
2022/11/14 07:10:51;;;;;;;37.83;18.80;;;;;;;;;;5020708;27;90129;-62
2022/11/14 07:13:18;;;;;;;34.50;18.88;;;;;;;;;;5015669;27;90313;-63
2022/11/14 07:16:02;;;;;;;33.78;18.20;;;;;;;;;;5016381;28;89477;-62
2022/11/14 07:18:29;;;;;;;43.88;18.10;;;;;;;;;;5017369;28;89428;-63
2022/11/14 07:20:57;;;;;;;31.90;18.27;;;;;;;;;;5023584;27;90651;-62
2022/11/14 07:23:23;;;;;;;34.83;19.02;;;;;;;;;;5020444;27;89170;-65
2022/11/14 07:25:49;;;;;;;39.90;19.05;;;;;;;;;;5013847;28;90034;-61
2022/11/14 07:28:15;;;;;;;43.75;20.75;;;;;;;;;;5013705;28;90410;-61
2022/11/14 07:30:42;;;;;;;38.00;19.20;;;;;;;;;;5014440;28;89939;-62
2022/11/14 07:33:09;;;;;;;37.10;19.30;;;;;;;;;;5018597;28;89895;-62
2022/11/14 07:35:37;;;;;;;42.25;20.52;;;;;;;;;;5021923;28;89609;-61
2022/11/14 07:38:04;;;;;;;41.03;19.95;;;;;;;;;;5030825;28;90248;-61
2022/11/14 07:40:30;;;;;;;39.67;20.50;;;;;;;;;;5018917;27;89985;-61
2022/11/14 07:43:00;;;;;;;35.13;19.55;;;;;;;;;;5015534;28;89902;-62
2022/11/14 07:45:27;;;;;;;37.55;19.58;;;;;;;;;;5016490;28;92106;-61
2022/11/14 07:47:56;;;;;;;32.50;19.13;;;;;;;;;;4998967;28;89877;-61
2022/11/14 07:50:23;;;;;;;35.92;18.48;;;;;;;;;;5011981;28;89056;-61
2022/11/14 07:52:50;;;;;;;34.83;18.50;;;;;;;;;;5016613;28;89840;-61
2022/11/14 07:55:17;;;;;;;36.00;18.75;;;;;;;;;;5014371;28;90389;-62
2022/11/14 07:57:43;;;;;;;41.33;20.58;;;;;;;;;;5015488;28;89401;-61
2022/11/14 08:00:15;;;;;;;39.03;19.98;;;;;;;;;;5015837;28;91294;-61
2022/11/14 08:02:42;;;;;;;42.03;21.23;;;;;;;;;;5030247;27;90445;-62
2022/11/14 08:05:08;;;;;;;45.47;21.40;;;;;;;;;;5021460;27;90921;-62
2022/11/14 08:07:34;;;;;;;37.95;21.15;;;;;;;;;;5013131;28;90711;-62
2022/11/14 08:10:00;;;;;;;43.53;22.08;;;;;;;;;;5015964;28;90708;-63
2022/11/14 08:12:27;;;;;;;43.92;22.35;;;;;;;;;;5015517;28;89925;-61
2022/11/14 08:14:53;;;;;;;43.28;22.25;;;;;;;;;;5016657;27;89531;-61
2022/11/14 08:17:20;;;;;;;41.45;21.88;;;;;;;;;;5015836;27;88978;-61
2022/11/14 08:19:46;;;;;;;39.40;21.75;;;;;;;;;;5021068;28;90042;-62
2022/11/14 08:22:13;;;;;;;38.45;20.38;;;;;;;;;;5026479;27;89606;-62
2022/11/14 08:24:39;;;;;;;40.38;21.85;;;;;;;;;;5021533;28;90009;-61
2022/11/14 08:27:05;;;;;;;42.42;19.40;;;;;;;;;;5017234;28;89563;-61
2022/11/14 08:29:31;;;;;;;40.92;20.88;;;;;;;;;;5018405;28;89883;-61
2022/11/14 08:31:58;;;;;;;39.65;21.38;;;;;;;;;;5019003;28;89979;-61
2022/11/14 08:34:25;;;;;;;38.70;20.83;;;;;;;;;;5018200;28;90573;-61
2022/11/14 08:36:51;;;;;;;41.50;21.30;;;;;;;;;;5017180;28;89336;-62
2022/11/14 08:39:18;;;;;;;39.50;21.90;;;;;;;;;;5017262;28;90089;-61
2022/11/14 08:41:44;;;;;;;40.00;20.58;;;;;;;;;;5018734;28;89560;-62
2022/11/14 08:44:10;;;;;;;44.85;22.20;;;;;;;;;;5018561;28;89312;-61
2022/11/14 08:46:36;;;;;;;37.65;20.88;;;;;;;;;;5022386;28;91897;-61
2022/11/14 08:49:03;;;;;;;41.92;21.20;;;;;;;;;;5031540;27;92150;-61
2022/11/14 08:51:29;;;;;;;39.78;20.80;;;;;;;;;;5016965;28;90027;-60
2022/11/14 08:53:55;;;;;;;42.38;21.38;;;;;;;;;;5018549;28;89246;-65
2022/11/14 08:56:21;;;;;;;45.97;22.90;;;;;;;;;;5020249;28;90351;-61
2022/11/14 08:58:48;;;;;;;43.08;22.17;;;;;;;;;;5021613;27;89885;-62
2022/11/14 09:01:14;;;;;;;38.58;21.35;;;;;;;;;;5011926;28;89574;-62
2022/11/14 09:03:40;;;;;;;38.33;20.70;;;;;;;;;;5017732;28;90168;-61
2022/11/14 09:06:07;;;;;;;37.63;20.27;;;;;;;;;;5018283;28;91120;-62
2022/11/14 09:08:33;;;;;;;32.80;19.58;;;;;;;;;;5022417;28;92102;-62
2022/11/14 09:11:00;;;;;;;36.22;19.25;;;;;;;;;;5026071;28;89939;-61
2022/11/14 09:13:31;;;;;;;36.70;19.05;;;;;;;;;;5039065;27;89595;-62
2022/11/14 09:15:58;;;;;;;36.15;19.73;;;;;;;;;;5024711;27;91850;-62
2022/11/14 09:18:24;;;;;;;36.35;20.05;;;;;;;;;;5033369;28;91101;-61
2022/11/14 09:20:50;;;;;;;30.00;17.55;;;;;;;;;;5039203;27;92163;-63
2022/11/14 09:23:16;;;;;;;29.20;17.48;;;;;;;;;;5019261;27;90018;-61
2022/11/14 09:25:43;;;;;;;30.65;15.93;;;;;;;;;;5019256;28;90362;-62
2022/11/14 09:28:09;;;;;;;29.58;16.05;;;;;;;;;;5019767;28;89538;-62
2022/11/14 09:30:36;;;;;;;35.45;16.40;;;;;;;;;;5019125;28;90010;-62
2022/11/14 09:33:03;;;;;;;30.42;16.02;;;;;;;;;;5018988;28;90680;-62
2022/11/14 09:35:36;;;;;;;30.55;15.02;;;;;;;;;;5019198;28;89100;-62
2022/11/14 09:38:04;;;;;;;25.13;15.30;;;;;;;;;;5036854;27;91101;-62
2022/11/14 09:40:40;;;;;;;25.13;14.77;;;;;;;;;;5037086;27;89788;-61
2022/11/14 09:43:18;;;;;;;26.80;14.55;;;;;;;;;;5036914;28;89275;-61
2022/11/14 09:45:47;;;;;;;22.98;13.85;;;;;;;;;;5031946;27;89939;-62
2022/11/14 09:48:17;;;;;;;24.42;14.50;;;;;;;;;;5016863;28;90600;-61
2022/11/14 09:50:45;;;;;;;20.30;13.68;;;;;;;;;;5021687;28;89356;-60
2022/11/14 09:53:27;;;;;;;29.77;14.75;;;;;;;;;;5018647;28;89862;-60
2022/11/14 09:55:53;;;;;;;22.98;14.30;;;;;;;;;;5018614;28;88996;-62
2022/11/14 09:58:20;;;;;;;21.80;13.15;;;;;;;;;;5031935;28;89879;-62
2022/11/14 10:00:46;;;;;;;22.60;13.55;;;;;;;;;;5026614;27;91824;-62
2022/11/14 10:03:12;;;;;;;21.70;12.48;;;;;;;;;;5017653;28;91127;-61
2022/11/14 10:05:44;;;;;;;22.27;14.13;;;;;;;;;;5015550;28;90031;-62
2022/11/14 10:08:10;;;;;;;17.98;11.55;;;;;;;;;;5029225;28;89567;-61
2022/11/14 10:10:44;;;;;;;22.20;13.63;;;;;;;;;;5037133;27;89471;-61
2022/11/14 10:13:13;;;;;;;22.50;12.98;;;;;;;;;;5041416;27;90041;-62
2022/11/14 10:15:49;;;;;;;19.50;13.40;;;;;;;;;;5031958;27;89062;-63
2022/11/14 10:18:24;;;;;;;21.05;13.32;;;;;;;;;;5017472;28;90178;-61
2022/11/14 10:20:54;;;;;;;21.20;12.95;;;;;;;;;;5016201;28;91842;-61
2022/11/14 10:23:25;;;;;;;21.63;13.75;;;;;;;;;;5015971;28;89588;-62
2022/11/14 10:25:52;;;;;;;22.80;12.90;;;;;;;;;;5015685;28;90046;-61
2022/11/14 10:28:40;;;;;;;18.40;12.13;;;;;;;;;;5014288;28;89532;-62
2022/11/14 10:31:14;;;;;;;17.88;11.57;;;;;;;;;;5017483;28;90018;-62
2022/11/14 10:33:43;;;;;;;21.58;11.70;;;;;;;;;;5015948;28;90053;-62
2022/11/14 10:36:17;;;;;;;19.17;12.25;;;;;;;;;;5020798;28;89648;-62
2022/11/14 10:38:49;;;;;;;19.00;11.27;;;;;;;;;;5016871;28;90046;-62
2022/11/14 10:41:15;;;;;;;17.55;11.73;;;;;;;;;;5016340;28;89527;-62
2022/11/14 10:44:02;;;;;;;20.33;11.80;;;;;;;;;;5021457;28;88875;-62
2022/11/14 10:46:31;;;;;;;18.48;11.20;;;;;;;;;;5024259;27;89951;-63
2022/11/14 10:48:57;;;;;;;16.20;11.00;;;;;;;;;;5015372;28;90577;-62
2022/11/14 10:51:46;;;;;;;18.15;11.07;;;;;;;;;;5018016;28;88835;-63
2022/11/14 10:54:16;;;;;;;15.88;10.65;;;;;;;;;;5016564;28;90068;-63
2022/11/14 10:56:46;;;;;;;16.92;11.65;;;;;;;;;;5016865;28;89619;-62
2022/11/14 10:59:12;;;;;;;15.65;10.60;;;;;;;;;;5020856;28;89970;-63
2022/11/14 11:01:40;;;;;;;16.48;12.15;;;;;;;;;;5016964;28;89547;-63
2022/11/14 11:04:22;;;;;;;17.95;12.48;;;;;;;;;;5016867;28;90455;-63
2022/11/14 11:06:49;;;;;;;18.95;12.05;;;;;;;;;;5016122;28;90258;-63
2022/11/14 11:12:01;;;;;;;21.13;11.57;;;;;;;;;;5016802;28;89962;-62
2022/11/14 11:14:28;;;;;;;13.98;11.35;;;;;;;;;;5017163;28;90367;-62
2022/11/14 11:17:14;;;;;;;18.35;11.38;;;;;;;;;;5014635;28;90155;-63
2022/11/14 11:19:41;;;;;;;18.45;11.68;;;;;;;;;;5012536;28;90114;-63
2022/11/14 11:22:27;;;;;;;16.35;11.50;;;;;;;;;;5020156;28;89177;-63
2022/11/14 11:24:54;;;;;;;15.48;11.52;;;;;;;;;;5017395;28;90418;-64
2022/11/14 11:27:22;;;;;;;17.63;11.15;;;;;;;;;;5014772;28;90048;-63
2022/11/14 11:30:00;;;;;;;15.45;11.70;;;;;;;;;;5015707;28;89574;-63
2022/11/14 11:32:26;;;;;;;14.95;11.02;;;;;;;;;;5012137;28;88983;-63
2022/11/14 11:34:53;;;;;;;14.93;11.77;;;;;;;;;;5016201;28;90535;-64
2022/11/14 11:37:27;;;;;;;14.60;11.50;;;;;;;;;;5013079;28;89166;-63
2022/11/14 11:40:01;;;;;;;19.13;11.23;;;;;;;;;;5014643;28;88892;-63
2022/11/14 11:42:44;;;;;;;14.20;11.73;;;;;;;;;;5039911;27;90045;-63
2022/11/14 11:45:31;;;;;;;14.77;11.40;;;;;;;;;;5027775;28;89398;-63
2022/11/14 11:48:00;;;;;;;16.90;11.48;;;;;;;;;;5016076;28;90490;-63
2022/11/14 11:50:26;;;;;;;16.60;12.23;;;;;;;;;;5014027;28;89495;-64
2022/11/14 11:53:11;;;;;;;16.98;11.18;;;;;;;;;;5033952;28;90523;-63
2022/11/14 11:55:45;;;;;;;26.38;12.98;;;;;;;;;;5034785;27;90440;-63
2022/11/14 11:58:22;;;;;;;13.60;11.50;;;;;;;;;;5026818;27;89410;-62
2022/11/14 12:00:54;;;;;;;22.02;11.75;;;;;;;;;;5016504;28;93458;-63
2022/11/14 12:03:21;;;;;;;23.58;13.50;;;;;;;;;;5015633;28;90060;-63
2022/11/14 12:06:04;;;;;;;18.58;12.50;;;;;;;;;;5019605;28;90067;-63
2022/11/14 12:08:40;;;;;;;18.65;12.18;;;;;;;;;;5015301;28;90485;-64
2022/11/14 12:11:10;;;;;;;18.48;12.13;;;;;;;;;;5030886;28;93330;-62
2022/11/14 12:13:39;;;;;;;14.27;11.75;;;;;;;;;;5014033;27;89334;-63
2022/11/14 12:16:08;;;;;;;15.68;12.18;;;;;;;;;;5015395;28;90041;-63
2022/11/14 12:18:57;;;;;;;21.35;12.00;;;;;;;;;;5014375;28;89937;-64
2022/11/14 12:21:46;;;;;;;18.15;12.02;;;;;;;;;;5030930;28;89281;-63
2022/11/14 12:24:15;;;;;;;17.27;12.83;;;;;;;;;;5032497;28;89950;-63
2022/11/14 12:26:48;;;;;;;17.00;13.53;;;;;;;;;;5036558;27;89660;-62
2022/11/14 12:29:20;;;;;;;18.42;14.65;;;;;;;;;;5024128;27;88948;-62
2022/11/14 12:31:55;;;;;;;18.13;15.90;;;;;;;;;;5014724;28;90468;-62
2022/11/14 12:34:26;;;;;;;25.73;17.92;;;;;;;;;;5016773;27;89365;-63
2022/11/14 12:36:52;;;;;;;28.95;19.38;;;;;;;;;;5015867;28;90033;-62
2022/11/14 12:39:23;;;;;;;29.10;19.92;;;;;;;;;;5014520;28;90693;-62
2022/11/14 12:41:59;;;;;;;27.73;20.77;;;;;;;;;;5016362;28;90040;-64
2022/11/14 12:44:28;;;;;;;30.73;20.77;;;;;;;;;;5016205;28;89896;-62
2022/11/14 12:47:03;;;;;;;25.13;18.17;;;;;;;;;;5017525;28;89775;-63
2022/11/14 12:49:35;;;;;;;32.47;18.67;;;;;;;;;;5014047;28;90520;-62
2022/11/14 12:52:02;;;;;;;25.25;18.65;;;;;;;;;;5014175;28;90486;-61
2022/11/14 12:54:45;;;;;;;30.50;19.52;;;;;;;;;;5016065;28;89017;-62
2022/11/14 12:57:46;;;;;;;30.08;20.67;;;;;;;;;;5014154;28;90278;-62
2022/11/14 13:00:06;;;;;;;26.20;18.38;;;;;;;;;;5027577;28;89868;-63
2022/11/14 13:03:04;;;;;;;24.93;18.93;;;;;;;;;;5015330;28;90916;-62
2022/11/14 13:05:49;;;;;;;35.83;19.73;;;;;;;;;;5001463;28;91142;-62
2022/11/14 13:08:24;;;;;;;26.50;18.42;;;;;;;;;;5006349;28;90971;-63
2022/11/14 13:10:51;;;;;;;31.60;20.25;;;;;;;;;;4999179;28;89289;-63
2022/11/14 13:22:09;;;;;;;26.58;18.90;;;;;;;;;;5038384;27;91712;-62
2022/11/14 13:24:56;;;;;;;28.67;19.20;;;;;;;;;;5019662;27;89118;-63
2022/11/14 13:27:25;;;;;;;28.75;18.00;;;;;;;;;;5017412;28;90501;-64
2022/11/14 13:30:10;;;;;;;25.95;19.60;;;;;;;;;;5009888;28;90257;-62
2022/11/14 13:32:39;;;;;;;28.17;19.10;;;;;;;;;;5039395;27;89991;-62
2022/11/14 13:35:17;;;;;;;33.22;19.92;;;;;;;;;;5038655;27;91579;-62
2022/11/14 13:37:51;;;;;;;29.52;18.95;;;;;;;;;;5031778;27;90872;-63
2022/11/14 13:40:29;;;;;;;37.28;20.40;;;;;;;;;;5011886;27;90386;-62
2022/11/14 13:42:55;;;;;;;33.25;19.42;;;;;;;;;;5014537;28;89573;-62
2022/11/14 13:45:34;;;;;;;35.60;20.58;;;;;;;;;;5019134;28;90381;-62
2022/11/14 13:48:03;;;;;;;27.85;19.48;;;;;;;;;;5019021;28;90851;-63
2022/11/14 13:50:35;;;;;;;33.50;21.02;;;;;;;;;;5015044;28;89533;-63
2022/11/14 13:53:09;;;;;;;31.20;20.65;;;;;;;;;;5008563;28;89427;-62
2022/11/14 13:55:36;;;;;;;35.50;21.38;;;;;;;;;;5006699;28;90394;-61
2022/11/14 13:58:20;;;;;;;31.98;21.77;;;;;;;;;;5018461;27;89976;-63
2022/11/14 14:00:56;;;;;;;31.48;20.25;;;;;;;;;;5014251;28;90838;-62
2022/11/14 14:03:22;;;;;;;30.42;20.73;;;;;;;;;;5020549;28;90094;-62
2022/11/14 14:06:24;;;;;;;31.60;21.15;;;;;;;;;;5016767;28;92020;-62
2022/11/14 14:09:04;;;;;;;34.35;22.38;;;;;;;;;;4993533;28;91230;-62
2022/11/14 14:12:02;;;;;;;34.72;21.98;;;;;;;;;;5003690;28;89597;-62
2022/11/14 14:14:52;;;;;;;35.63;22.63;;;;;;;;;;4972819;28;89612;-62
2022/11/14 14:17:36;;;;;;;36.35;23.08;;;;;;;;;;4995353;28;90037;-62
2022/11/14 14:20:21;;;;;;;40.45;24.35;;;;;;;;;;4979311;28;89514;-62
2022/11/14 14:22:59;;;;;;;44.63;25.27;;;;;;;;;;4978762;28;90157;-62
2022/11/14 14:25:33;;;;;;;38.38;25.23;;;;;;;;;;4997272;28;90218;-62
2022/11/14 14:28:02;;;;;;;45.67;27.20;;;;;;;;;;4998289;28;88987;-63
2022/11/14 14:30:28;;;;;;;42.90;26.73;;;;;;;;;;5006080;28;93687;-62
2022/11/14 14:33:06;;;;;;;42.00;27.55;;;;;;;;;;4995229;28;89588;-62
2022/11/14 14:35:34;;;;;;;45.05;27.27;;;;;;;;;;4993050;28;89196;-62
2022/11/14 14:38:09;;;;;;;40.72;26.25;;;;;;;;;;5001480;28;90467;-62
2022/11/14 14:40:35;;;;;;;;;;;;;;;;;;5004322;28;89883;-61